Flugplatz Saarbrücken (EDDR)

Hier findest Du alle Informationen zum Flugplatz Saarbrücken (EDDR).

Informationen für Piloten zum Flugplatz Saarbrücken

Hier findest Du alle relevanten Informationen, die Du als Pilot benötigst, um Saarbrücken anzufliegen.

Flugplatz: Saarbrücken ICAO-Code: EDDR
Frequenz Turm: 118,350 Mhz GAFOR Gebiet: 44
Frequenz Ground: 118,350 Mhz Mogas: nein
Platzrunde: - Landegebühr: -
Platzhöhe: - Sunrise: 03:25 Uhr UTC
Pisten: 09/27 - 2.000 m x 45 m, ASPH Sunset: 19:43 Uhr UTC

Mitglieder, die in Saarbrücken fliegen

Flugwetter am Flugplatz Saarbrücken

Die METAR Information stammen aus EDDR.

METAR Code:
2022/05/31 14:50
EDDR 311450Z AUTO 29008KT 250V320 CAVOK 20/04 Q1012 NOSIG

Temperatur: 15,4 °C Niederschlag: - Wind: 6,0 kt
Temperatur (min.): 14,0 °C Luftdruck: 1003 hPa Windrichtung: 210 °
Temperatur (max.): 16,0 °C Luftfeuchtigkeit: 92 % Bewölkung: -

Flugschulen am Flugplatz Saarbrücken

Am Flugplatz Saarbrücken gibt es leider keine Flugschule.

Benachbarte Flugplätze und Flugschulen

Es gibt 9 weitere Flugplätze in einem Umkreis von 50 km um den Flugplatz Saarbrücken.

Jetzt anmelden

Passwort vergessen

Umfrage Archiv

Sendet Ihr ADS-B und/oder FLARM?

Ja
83.2 %
Nein
16.8 %
Stimmen: 173 | Diskussion
Anzeige: Roland Aircraft
Statistik Alle Mitglieder

Aktuell sind 47 Besucher online.

Anzeige: ULPower Aero Engines Anzeige: Pocket FMS